Royal Engineer — WDF6370 — position and weather

sailwx.info

Track history (hours):
 
Tides and Currents Weather Stations Pressure Air Temp Water Temp Dewpoint Dewpoint Depression Visibility Wind Speed Wind Dir Waves Ship Positions

Royal Engineer

Owner: Royal Engineer, Yonges Island, SC. More information available from US FCC via Universal Licensing System and Coast Guard Vessel Documentation Center.

Last reported at 2018-Jun-19 23:12 UTC. Time now 2018-Jun-22 03:01 UTC.
Position N 36°53' W 076°20'.

Length 16 m; draft 2.5 m.

Type: Towing. MMSI: 367473540.

Date/timePositionNaut miles runAvg speedWind from/ knotsBaromVisibWave heightAir tempDewpointWater temp
2018-Jun-19 23:12N 36°53' W 076°20'1 5.4
2018-Jun-19 23:00N 36°52' W 076°20'3 6.3
2018-Jun-19 22:30N 36°50' W 076°18'2 3.7
2018-Jun-19 22:00N 36°48' W 076°18'2 3.8
2018-Jun-19 21:30N 36°46' W 076°18'1 1.9
2018-Jun-19 21:00N 36°45' W 076°18'2 4.3
2018-Jun-19 20:29N 36°44' W 076°16'1 1.4
2018-Jun-19 20:00N 36°43' W 076°15'0 0.4
2018-Jun-19 19:28N 36°43' W 076°15'0 0.0
2018-Jun-19 18:41N 36°43' W 076°15'0 0.0
2018-Jun-19 18:24N 36°43' W 076°15'0 0.0
2018-Jun-19 17:57N 36°43' W 076°15'0 0.0
2018-Jun-19 17:28N 36°43' W 076°15'0 0.0
2018-Jun-19 16:52N 36°43' W 076°15'0 0.0
2018-Jun-19 16:30N 36°43' W 076°15'0 0.0
2018-Jun-19 15:56N 36°43' W 076°15'0 0.0
2018-Jun-19 15:13N 36°43' W 076°15'99 3.6
2018-Jun-18 11:59N 35°05' W 076°32'5 6.1
2018-Jun-18 11:14N 35°02' W 076°36'2 5.9
2018-Jun-18 10:58N 35°02' W 076°38'3 5.7
2018-Jun-18 10:29N 34°60' W 076°41'3 3.8
2018-Jun-18 09:46N 34°57' W 076°40'1 3.3
2018-Jun-18 09:29N 34°56' W 076°39'2 3.9
2018-Jun-18 09:00N 34°55' W 076°40'2 3.6
2018-Jun-18 08:30N 34°53' W 076°41'2 4.4
2018-Jun-18 08:00N 34°51' W 076°41'2 4.6
2018-Jun-18 07:30N 34°49' W 076°41'2 4.6
2018-Jun-18 07:00N 34°46' W 076°41'2 3.4
2018-Jun-18 06:30N 34°45' W 076°41'1 2.8
2018-Jun-18 06:00N 34°44' W 076°42'0 0.0
2018-Jun-18 05:30N 34°44' W 076°42'0 0.0
2018-Jun-18 04:59N 34°44' W 076°42'1 1.3
2018-Jun-18 04:30N 34°43' W 076°42'0 0.0
2018-Jun-18 04:00N 34°43' W 076°42'0 0.0
2018-Jun-18 03:30N 34°43' W 076°42'0 0.0
2018-Jun-18 03:00N 34°43' W 076°42'0 0.3
2018-Jun-18 02:30N 34°43' W 076°42'0 0.2
2018-Jun-18 02:00N 34°43' W 076°42'0 0.0
2018-Jun-18 01:30N 34°43' W 076°42'0 0.0
2018-Jun-18 01:00N 34°43' W 076°42'0 0.0
2018-Jun-18 00:30N 34°43' W 076°42'0 0.0
2018-Jun-18 00:00N 34°43' W 076°42'0 0.0
2018-Jun-17 23:30N 34°43' W 076°42'0 0.0
2018-Jun-17 23:00N 34°43' W 076°42'0 0.0
2018-Jun-17 22:30N 34°43' W 076°42'0 0.0
2018-Jun-17 22:00N 34°43' W 076°42'0 0.0
2018-Jun-17 21:30N 34°43' W 076°42'0 0.0
2018-Jun-17 21:00N 34°43' W 076°42'0 0.0
2018-Jun-17 20:30N 34°43' W 076°42'0 0.0
2018-Jun-17 20:00N 34°43' W 076°42'0 0.0
2018-Jun-17 19:30N 34°43' W 076°42'0 0.0
2018-Jun-17 19:00N 34°43' W 076°42'0 0.0
2018-Jun-17 18:30N 34°43' W 076°42'0 0.0
2018-Jun-17 18:00N 34°43' W 076°42'0 0.0
2018-Jun-17 17:30N 34°43' W 076°42'0 0.0
2018-Jun-17 17:00N 34°43' W 076°42'0 0.0
2018-Jun-17 16:30N 34°43' W 076°42'0 0.4
2018-Jun-17 16:00N 34°43' W 076°42'0 0.0
2018-Jun-17 15:30N 34°43' W 076°42'0 0.0
2018-Jun-17 15:00N 34°43' W 076°42'0 0.0
2018-Jun-17 14:30N 34°43' W 076°42'0 0.4
2018-Jun-17 14:00N 34°43' W 076°42'0 0.0
2018-Jun-17 13:30N 34°43' W 076°42'0 0.0
2018-Jun-17 13:00N 34°43' W 076°42'0 0.0
2018-Jun-17 12:30N 34°43' W 076°42'0 0.0
2018-Jun-17 12:00N 34°43' W 076°42'0 0.0
2018-Jun-17 11:30N 34°43' W 076°42'0 0.3
2018-Jun-17 11:00N 34°43' W 076°42'0 0.9
2018-Jun-17 10:30N 34°43' W 076°42'0 0.6
2018-Jun-17 10:00N 34°43' W 076°42'0 0.1
2018-Jun-17 09:30N 34°43' W 076°42'0 0.0
2018-Jun-17 08:59N 34°43' W 076°42'0 0.0
2018-Jun-17 08:30N 34°43' W 076°42'0 0.0
2018-Jun-17 08:00N 34°43' W 076°42'0 0.0
2018-Jun-17 07:30N 34°43' W 076°42'0 0.0
2018-Jun-17 07:00N 34°43' W 076°42'0 0.0
2018-Jun-17 06:30N 34°43' W 076°42'0 0.0
2018-Jun-17 06:00N 34°43' W 076°42'0 0.0
2018-Jun-17 05:30N 34°43' W 076°42'0 0.0
2018-Jun-17 05:00N 34°43' W 076°42'0 0.0
2018-Jun-17 04:30N 34°43' W 076°42'0 0.0
2018-Jun-17 04:00N 34°43' W 076°42'0 0.0
2018-Jun-17 03:30N 34°43' W 076°42'0 0.0
2018-Jun-17 03:00N 34°43' W 076°42'0 0.0
2018-Jun-17 02:30N 34°43' W 076°42'0 0.0
2018-Jun-17 02:00N 34°43' W 076°42'0 0.0
2018-Jun-17 01:30N 34°43' W 076°42'0 0.0
2018-Jun-17 01:00N 34°43' W 076°42'0 0.0
2018-Jun-17 00:30N 34°43' W 076°42'0 0.0
2018-Jun-17 00:00N 34°43' W 076°42'0 0.0
2018-Jun-16 23:30N 34°43' W 076°42'0 0.0
2018-Jun-16 23:00N 34°43' W 076°42'0 0.0
2018-Jun-16 22:30N 34°43' W 076°42'0 0.0
2018-Jun-16 22:00N 34°43' W 076°42'0 0.0
2018-Jun-16 21:30N 34°43' W 076°42'0 0.0
2018-Jun-16 21:00N 34°43' W 076°42'0 0.0
2018-Jun-16 20:30N 34°43' W 076°42'0 0.0
2018-Jun-16 20:00N 34°43' W 076°42'0 0.0
2018-Jun-16 19:30N 34°43' W 076°42'0 0.0
2018-Jun-16 19:00N 34°43' W 076°42'0 0.7
2018-Jun-16 18:30N 34°43' W 076°42'0 0.7
2018-Jun-16 18:00N 34°43' W 076°42'0 0.0
2018-Jun-16 17:30N 34°43' W 076°42'0 0.0
2018-Jun-16 17:00N 34°43' W 076°42'0 0.0
2018-Jun-16 16:30N 34°43' W 076°42'0 0.0
2018-Jun-16 16:00N 34°43' W 076°42'0 0.0
2018-Jun-16 15:30N 34°43' W 076°42'0 0.0
2018-Jun-16 15:00N 34°43' W 076°42'0 0.0
2018-Jun-16 14:30N 34°43' W 076°42'0 0.0
2018-Jun-16 14:00N 34°43' W 076°42'0 0.0
2018-Jun-16 13:30N 34°43' W 076°42'0 0.0
2018-Jun-16 13:00N 34°43' W 076°42'0 0.0
2018-Jun-16 12:30N 34°43' W 076°42'0 0.0
2018-Jun-16 12:00N 34°43' W 076°42'0 0.0
2018-Jun-16 11:30N 34°43' W 076°42'0 0.0
2018-Jun-16 11:00N 34°43' W 076°42'0 0.0
2018-Jun-16 10:30N 34°43' W 076°42'0 0.0
2018-Jun-16 10:00N 34°43' W 076°42'0 0.0
2018-Jun-16 09:30N 34°43' W 076°42'0 0.2
2018-Jun-16 09:00N 34°43' W 076°42'1 1.2
2018-Jun-16 08:30N 34°43' W 076°41'0 0.0
2018-Jun-16 08:00N 34°43' W 076°41'0 0.0
2018-Jun-16 07:30N 34°43' W 076°41'0 0.0
2018-Jun-16 07:00N 34°43' W 076°41'0 0.0
2018-Jun-16 06:30N 34°43' W 076°41'0 0.0
2018-Jun-16 05:59N 34°43' W 076°41'0 0.0
2018-Jun-16 05:30N 34°43' W 076°41'0 0.0
2018-Jun-16 05:00N 34°43' W 076°41'0 0.0
2018-Jun-16 04:30N 34°43' W 076°41'0 0.0
2018-Jun-16 04:00N 34°43' W 076°41'0 0.0
2018-Jun-16 03:30N 34°43' W 076°41'0 0.0
2018-Jun-16 03:00N 34°43' W 076°41'1 1.2
2018-Jun-16 02:30N 34°43' W 076°42'0 0.0
2018-Jun-16 02:00N 34°43' W 076°42'0 0.0
2018-Jun-16 01:30N 34°43' W 076°42'1 1.2
2018-Jun-16 01:00N 34°43' W 076°41'1 1.1
2018-Jun-16 00:30N 34°43' W 076°42'0 0.1
2018-Jun-16 00:00N 34°43' W 076°42'0 0.0
2018-Jun-15 23:30N 34°43' W 076°42'0 0.0
2018-Jun-15 23:00N 34°43' W 076°42'0 0.0
2018-Jun-15 22:30N 34°43' W 076°42'0 0.0
2018-Jun-15 22:00N 34°43' W 076°42'0 0.2
2018-Jun-15 21:30N 34°43' W 076°42'0 0.2
2018-Jun-15 21:00N 34°43' W 076°42'0 0.0
2018-Jun-15 20:30N 34°43' W 076°42'0 0.0
2018-Jun-15 20:00N 34°43' W 076°42'0 0.0
2018-Jun-15 19:30N 34°43' W 076°42'0 0.0
2018-Jun-15 19:00N 34°43' W 076°42'0 0.0
2018-Jun-15 18:30N 34°43' W 076°42'0 0.0
2018-Jun-15 18:00N 34°43' W 076°42'0 0.0
2018-Jun-15 17:30N 34°43' W 076°42'0 0.0
2018-Jun-15 17:00N 34°43' W 076°42'0 0.0
2018-Jun-15 16:30N 34°43' W 076°42'0 0.0
2018-Jun-15 16:00N 34°43' W 076°42'0 0.0
2018-Jun-15 15:30N 34°43' W 076°42'0 0.0
2018-Jun-15 15:00N 34°43' W 076°42'0 0.0
2018-Jun-15 14:30N 34°43' W 076°42'0 0.0
2018-Jun-15 14:00N 34°43' W 076°42'0 0.0
2018-Jun-15 13:30N 34°43' W 076°42'0 0.0
2018-Jun-15 13:00N 34°43' W 076°42'0 1.0
2018-Jun-15 12:30N 34°43' W 076°42'0 0.4
2018-Jun-15 12:00N 34°43' W 076°42'0 0.7
2018-Jun-15 11:30N 34°43' W 076°42'0 0.0
2018-Jun-15 11:00N 34°43' W 076°42'0 0.0
2018-Jun-15 10:30N 34°43' W 076°42'0 0.0
2018-Jun-15 10:00N 34°43' W 076°42'0 0.0
2018-Jun-15 09:30N 34°43' W 076°42'0 0.0
2018-Jun-15 09:00N 34°43' W 076°42'1 1.3
2018-Jun-15 08:30N 34°43' W 076°42'1 1.3
2018-Jun-15 08:00N 34°43' W 076°42'0 0.2
2018-Jun-15 07:30N 34°43' W 076°42'0 0.0
2018-Jun-15 07:00N 34°43' W 076°42'0 0.0
2018-Jun-15 06:30N 34°43' W 076°42'0 0.0
2018-Jun-15 06:00N 34°43' W 076°42'0 0.0
2018-Jun-15 05:30N 34°43' W 076°42'0 0.0
2018-Jun-15 05:00N 34°43' W 076°42'0 0.0
2018-Jun-15 04:30N 34°43' W 076°42'0 0.0
2018-Jun-15 04:00N 34°43' W 076°42'0 0.0
2018-Jun-15 03:30N 34°43' W 076°42'0 0.0
2018-Jun-15 03:00N 34°43' W 076°42'0 0.0
2018-Jun-15 02:30N 34°43' W 076°42'0 0.0
2018-Jun-15 02:00N 34°43' W 076°42'0 0.0
2018-Jun-15 01:30N 34°43' W 076°42'0 0.0
2018-Jun-15 01:00N 34°43' W 076°42'0 0.0
2018-Jun-15 00:30N 34°43' W 076°42'0 0.0
2018-Jun-15 00:00N 34°43' W 076°42'0 0.2
2018-Jun-14 23:30N 34°43' W 076°42'0 0.2
2018-Jun-14 23:00N 34°43' W 076°42'0 0.0
2018-Jun-14 22:30N 34°43' W 076°42'0 0.0
2018-Jun-14 22:00N 34°43' W 076°42'0 0.0
2018-Jun-14 21:30N 34°43' W 076°42'0 0.0
2018-Jun-14 21:00N 34°43' W 076°42'0 0.0
2018-Jun-14 20:30N 34°43' W 076°42'0 0.0
2018-Jun-14 20:00N 34°43' W 076°42'0 0.0
2018-Jun-14 19:30N 34°43' W 076°42'0 0.0
2018-Jun-14 19:00N 34°43' W 076°42'0 0.0
2018-Jun-14 18:30N 34°43' W 076°42'0 0.0
2018-Jun-14 18:00N 34°43' W 076°42'0 0.0
2018-Jun-14 17:30N 34°43' W 076°42'0 0.1
2018-Jun-14 17:00N 34°43' W 076°42'0 0.4
2018-Jun-14 16:30N 34°43' W 076°42'0 0.1
2018-Jun-14 16:00N 34°43' W 076°42'0 0.8
2018-Jun-14 15:30N 34°43' W 076°42'0 0.3
2018-Jun-14 15:00N 34°43' W 076°42'0 0.5
2018-Jun-14 14:30N 34°43' W 076°41'0 0.8
2018-Jun-14 14:00N 34°43' W 076°42'0 0.3
2018-Jun-14 13:30N 34°43' W 076°42'0 0.0
2018-Jun-14 13:00N 34°43' W 076°42'0 0.0
2018-Jun-14 12:30N 34°43' W 076°42'0 0.1
2018-Jun-14 12:00N 34°43' W 076°42'0 0.0
2018-Jun-14 11:30N 34°43' W 076°42'0 0.0
2018-Jun-14 10:59N 34°43' W 076°42'0 0.1
2018-Jun-14 10:30N 34°43' W 076°42'0 0.0
2018-Jun-14 10:00N 34°43' W 076°42'0 0.0
2018-Jun-14 09:30N 34°43' W 076°42'0 0.0
2018-Jun-14 09:00N 34°43' W 076°42'0 0.7
2018-Jun-14 08:30N 34°43' W 076°42'0 0.1
2018-Jun-14 08:00N 34°43' W 076°42'1 1.1
2018-Jun-14 07:30N 34°43' W 076°42'0 0.9
2018-Jun-14 07:00N 34°43' W 076°42'0 0.0
2018-Jun-14 06:30N 34°43' W 076°42'0 0.0
2018-Jun-14 06:00N 34°43' W 076°42'0 0.0
2018-Jun-14 05:30N 34°43' W 076°42'0 0.0
2018-Jun-14 05:00N 34°43' W 076°42'0 0.0
2018-Jun-14 04:30N 34°43' W 076°42'0 0.0
2018-Jun-14 04:00N 34°43' W 076°42'0 0.0
2018-Jun-14 03:30N 34°43' W 076°42'0 0.0
2018-Jun-14 03:00N 34°43' W 076°42'0 0.0
2018-Jun-14 02:30N 34°43' W 076°42'0 0.0
2018-Jun-14 02:00N 34°43' W 076°42'0 0.0
2018-Jun-14 01:30N 34°43' W 076°42'1 1.1
2018-Jun-14 01:00N 34°43' W 076°42'1 1.1
2018-Jun-14 00:30N 34°43' W 076°42'0 0.0
2018-Jun-14 00:00N 34°43' W 076°42'0 0.0
2018-Jun-13 23:30N 34°43' W 076°42'0 0.0
2018-Jun-13 23:00N 34°43' W 076°42'0 0.0
2018-Jun-13 22:30N 34°43' W 076°42'0 0.0
2018-Jun-13 22:00N 34°43' W 076°42'0 0.1
2018-Jun-13 21:30N 34°43' W 076°42'0 0.7
2018-Jun-13 21:00N 34°43' W 076°42'0 0.0
2018-Jun-13 20:30N 34°43' W 076°42'0 0.0
2018-Jun-13 20:00N 34°43' W 076°42'0 0.6
2018-Jun-13 19:30N 34°43' W 076°42'0 0.0
2018-Jun-13 19:00N 34°43' W 076°42'0 0.0
2018-Jun-13 18:30N 34°43' W 076°42'0 0.0
2018-Jun-13 18:00N 34°43' W 076°42'0 0.0
2018-Jun-13 17:30N 34°43' W 076°42'0 0.0
2018-Jun-13 17:00N 34°43' W 076°42'0 0.0
2018-Jun-13 16:30N 34°43' W 076°42'0 0.0
2018-Jun-13 16:00N 34°43' W 076°42'0 0.0
2018-Jun-13 15:30N 34°43' W 076°42'0 0.7
2018-Jun-13 15:00N 34°43' W 076°42'0 0.7
2018-Jun-13 14:29N 34°43' W 076°42'0 0.0
2018-Jun-13 14:00N 34°43' W 076°42'0 0.0
2018-Jun-13 13:30N 34°43' W 076°42'0 0.0
2018-Jun-13 13:00N 34°43' W 076°42'0 0.0
2018-Jun-13 12:30N 34°43' W 076°42'0 0.0
2018-Jun-13 12:00N 34°43' W 076°42'0 0.0
2018-Jun-13 11:30N 34°43' W 076°42'0 0.0
2018-Jun-13 11:00N 34°43' W 076°42'0 0.0
2018-Jun-13 10:30N 34°43' W 076°42'0 0.0
2018-Jun-13 09:59N 34°43' W 076°42'0 0.0
2018-Jun-13 09:30N 34°43' W 076°42'0 0.0
2018-Jun-13 09:00N 34°43' W 076°42'0 0.0
2018-Jun-13 08:30N 34°43' W 076°42'0 0.0
2018-Jun-13 08:01N 34°43' W 076°42'0 0.0
2018-Jun-13 07:30N 34°43' W 076°42'0 0.0
2018-Jun-13 07:01N 34°43' W 076°42'0 0.0
2018-Jun-13 06:31N 34°43' W 076°42'0 0.0
2018-Jun-13 06:00N 34°43' W 076°42'0 0.0
2018-Jun-13 05:31N 34°43' W 076°42'0 0.0
2018-Jun-13 05:01N 34°43' W 076°42'0 0.0
2018-Jun-13 04:31N 34°43' W 076°42'0 0.0
2018-Jun-13 04:00N 34°43' W 076°42'0 0.0
2018-Jun-13 03:30N 34°43' W 076°42'0 0.0
2018-Jun-13 03:01N 34°43' W 076°42'0 0.0
2018-Jun-13 02:31N 34°43' W 076°42'0 0.0
2018-Jun-13 02:01N 34°43' W 076°42'1 1.1
2018-Jun-13 01:31N 34°43' W 076°41'0 0.1
2018-Jun-13 01:01N 34°43' W 076°41'0 0.0
2018-Jun-13 00:31N 34°43' W 076°41'0 0.4
2018-Jun-13 00:01N 34°43' W 076°42'0 0.0
2018-Jun-12 23:30N 34°43' W 076°42'0 0.0
2018-Jun-12 23:01N 34°43' W 076°42'0 0.0
2018-Jun-12 22:31N 34°43' W 076°42'0 0.0
2018-Jun-12 22:01N 34°43' W 076°42'0 0.0
2018-Jun-12 21:29N 34°43' W 076°42'0 0.0
2018-Jun-12 21:00N 34°43' W 076°42'0 0.1
2018-Jun-12 20:31N 34°43' W 076°42'0 0.8
2018-Jun-12 20:01N 34°43' W 076°42'0 0.7
2018-Jun-12 19:27N 34°43' W 076°42'0 0.0
2018-Jun-12 19:01N 34°43' W 076°42'0 0.1
2018-Jun-12 18:31N 34°43' W 076°42'0 0.0
2018-Jun-12 18:01N 34°43' W 076°42'0 0.0
2018-Jun-12 17:31N 34°43' W 076°42'0 0.0
2018-Jun-12 17:01N 34°43' W 076°42'0 0.0
2018-Jun-12 16:31N 34°43' W 076°42'0 0.8
2018-Jun-12 16:00N 34°43' W 076°42'0 0.0
2018-Jun-12 15:30N 34°43' W 076°42'0 0.0
2018-Jun-12 15:01N 34°43' W 076°42'0 0.0
2018-Jun-12 14:29N 34°43' W 076°42'0 0.0
2018-Jun-12 14:00N 34°43' W 076°42'0 0.9
2018-Jun-12 13:29N 34°43' W 076°42'0 1.0
2018-Jun-12 13:00N 34°43' W 076°42'0 0.0
2018-Jun-12 12:31N 34°43' W 076°42'0 0.0
2018-Jun-12 12:01N 34°43' W 076°42'0 0.0
2018-Jun-12 11:29N 34°43' W 076°42'0 0.0
2018-Jun-12 11:01N 34°43' W 076°42'0 0.0
2018-Jun-12 10:30N 34°43' W 076°42'0 0.0
2018-Jun-12 10:01N 34°43' W 076°42'0 0.0
2018-Jun-12 09:31N 34°43' W 076°42'0 0.0
2018-Jun-12 09:01N 34°43' W 076°42'0 0.0
2018-Jun-12 08:31N 34°43' W 076°42'0 0.0
2018-Jun-12 08:01N 34°43' W 076°42'0 0.0
2018-Jun-12 07:30N 34°43' W 076°42'0 0.0
2018-Jun-12 07:00N 34°43' W 076°42'0 0.0
2018-Jun-12 06:31N 34°43' W 076°42'0 0.0
2018-Jun-12 06:01N 34°43' W 076°42'0 0.0
2018-Jun-12 05:30N 34°43' W 076°42'0 0.0
2018-Jun-12 05:00N 34°43' W 076°42'0 0.0
2018-Jun-12 04:29N 34°43' W 076°42'0 0.0
2018-Jun-12 04:01N 34°43' W 076°42'0 0.0
2018-Jun-12 03:30N 34°43' W 076°42'0 0.0
2018-Jun-12 03:01N 34°43' W 076°42'0 0.0
2018-Jun-12 02:31N 34°43' W 076°42'0 0.0
2018-Jun-12 02:01N 34°43' W 076°42'0 0.0
2018-Jun-12 01:31N 34°43' W 076°42'0 0.0
2018-Jun-12 01:00N 34°43' W 076°42'0 0.0
2018-Jun-12 00:31N 34°43' W 076°42'0 0.0
2018-Jun-12 00:01N 34°43' W 076°42'0 0.0
2018-Jun-11 23:31N 34°43' W 076°42'0 0.9
2018-Jun-11 23:01N 34°43' W 076°42'0 0.4
2018-Jun-11 22:31N 34°43' W 076°41'1 1.2
2018-Jun-11 22:01N 34°43' W 076°42'1 0.3
2018-Jun-11 19:56N 34°43' W 076°41'1 1.3
2018-Jun-11 19:31N 34°43' W 076°42'1 1.5
2018-Jun-11 19:01N 34°44' W 076°42'2 4.3
2018-Jun-11 18:31N 34°45' W 076°40'1 2.7
2018-Jun-11 18:00N 34°47' W 076°41'0 0.3
2018-Jun-11 17:31N 34°46' W 076°41'1 2.9
2018-Jun-11 17:00N 34°45' W 076°41'2 3.9
2018-Jun-11 16:31N 34°43' W 076°42'0 0.8
2018-Jun-11 16:01N 34°43' W 076°42'0 0.0
2018-Jun-11 15:30N 34°43' W 076°42'0 0.0
2018-Jun-11 15:00N 34°43' W 076°42'0 0.0
2018-Jun-11 14:31N 34°43' W 076°42'0 0.0
2018-Jun-11 14:00N 34°43' W 076°42'0 0.0
2018-Jun-11 13:31N 34°43' W 076°42'0 0.0
2018-Jun-11 13:01N 34°43' W 076°42'0 0.0
2018-Jun-11 12:31N 34°43' W 076°42'0 0.0
2018-Jun-11 12:01N 34°43' W 076°42'0 0.0
2018-Jun-11 11:30N 34°43' W 076°42'0 0.0
2018-Jun-11 11:00N 34°43' W 076°42'0 0.3
2018-Jun-11 10:30N 34°43' W 076°42'0 0.8
2018-Jun-11 10:01N 34°43' W 076°42'0 0.0
2018-Jun-11 09:31N 34°43' W 076°42'0 0.2
2018-Jun-11 09:01N 34°43' W 076°42'0 0.3
2018-Jun-11 08:30N 34°43' W 076°42'0 0.0
2018-Jun-11 08:01N 34°43' W 076°42'0 0.0
2018-Jun-11 07:31N 34°43' W 076°42'0 0.0
2018-Jun-11 07:01N 34°43' W 076°42'0 0.0
2018-Jun-11 06:30N 34°43' W 076°42'0 0.0
2018-Jun-11 06:01N 34°43' W 076°42'0 0.0
2018-Jun-11 05:31N 34°43' W 076°42'0 0.0
2018-Jun-11 05:00N 34°43' W 076°42'0 0.0
2018-Jun-11 04:29N 34°43' W 076°42'0 0.0
2018-Jun-11 04:01N 34°43' W 076°42'0 0.2
2018-Jun-11 03:30N 34°43' W 076°42'0 0.4
2018-Jun-11 03:00N 34°43' W 076°42'3 7.0
2018-Jun-11 02:31N 34°43' W 076°46'3 5.8
2018-Jun-11 01:59N 34°43' W 076°50'3 5.5
2018-Jun-11 01:31N 34°43' W 076°53'3 5.0
2018-Jun-11 01:00N 34°43' W 076°56'5 5.2
2018-Jun-11 00:05N 34°41' W 077°01'  
Track history (hours):
 
Tides and Currents Weather Stations Pressure Air Temp Water Temp Dewpoint Dewpoint Depression Visibility Wind Speed Wind Dir Waves Ship Positions

Royal Engineer

Owner: Royal Engineer, Yonges Island, SC. More information available from US FCC via Universal Licensing System and Coast Guard Vessel Documentation Center.

Last reported at 2018-Jun-19 23:12 UTC. Time now 2018-Jun-22 03:01 UTC.
Position N 36°53' W 076°20'.

Length 16 m; draft 2.5 m.

Type: Towing. MMSI: 367473540.

Date/timePositionNaut miles runAvg speedWind from/ knotsBaromVisibWave heightAir tempDewpointWater temp
2018-Jun-19 23:12N 36°53' W 076°20'1 5.4
2018-Jun-19 23:00N 36°52' W 076°20'3 6.3
2018-Jun-19 22:30N 36°50' W 076°18'2 3.7
2018-Jun-19 22:00N 36°48' W 076°18'2 3.8
2018-Jun-19 21:30N 36°46' W 076°18'1 1.9
2018-Jun-19 21:00N 36°45' W 076°18'2 4.3
2018-Jun-19 20:29N 36°44' W 076°16'1 1.4
2018-Jun-19 20:00N 36°43' W 076°15'0 0.4
2018-Jun-19 19:28N 36°43' W 076°15'0 0.0
2018-Jun-19 18:41N 36°43' W 076°15'0 0.0
2018-Jun-19 18:24N 36°43' W 076°15'0 0.0
2018-Jun-19 17:57N 36°43' W 076°15'0 0.0
2018-Jun-19 17:28N 36°43' W 076°15'0 0.0
2018-Jun-19 16:52N 36°43' W 076°15'0 0.0
2018-Jun-19 16:30N 36°43' W 076°15'0 0.0
2018-Jun-19 15:56N 36°43' W 076°15'0 0.0
2018-Jun-19 15:13N 36°43' W 076°15'99 3.6
2018-Jun-18 11:59N 35°05' W 076°32'5 6.1
2018-Jun-18 11:14N 35°02' W 076°36'2 5.9
2018-Jun-18 10:58N 35°02' W 076°38'3 5.7
2018-Jun-18 10:29N 34°60' W 076°41'3 3.8
2018-Jun-18 09:46N 34°57' W 076°40'1 3.3
2018-Jun-18 09:29N 34°56' W 076°39'2 3.9
2018-Jun-18 09:00N 34°55' W 076°40'2 3.6
2018-Jun-18 08:30N 34°53' W 076°41'2 4.4
2018-Jun-18 08:00N 34°51' W 076°41'2 4.6
2018-Jun-18 07:30N 34°49' W 076°41'2 4.6
2018-Jun-18 07:00N 34°46' W 076°41'2 3.4
2018-Jun-18 06:30N 34°45' W 076°41'1 2.8
2018-Jun-18 06:00N 34°44' W 076°42'0 0.0
2018-Jun-18 05:30N 34°44' W 076°42'0 0.0
2018-Jun-18 04:59N 34°44' W 076°42'1 1.3
2018-Jun-18 04:30N 34°43' W 076°42'0 0.0
2018-Jun-18 04:00N 34°43' W 076°42'0 0.0
2018-Jun-18 03:30N 34°43' W 076°42'0 0.0
2018-Jun-18 03:00N 34°43' W 076°42'0 0.3
2018-Jun-18 02:30N 34°43' W 076°42'0 0.2
2018-Jun-18 02:00N 34°43' W 076°42'0 0.0
2018-Jun-18 01:30N 34°43' W 076°42'0 0.0
2018-Jun-18 01:00N 34°43' W 076°42'0 0.0
2018-Jun-18 00:30N 34°43' W 076°42'0 0.0
2018-Jun-18 00:00N 34°43' W 076°42'0 0.0
2018-Jun-17 23:30N 34°43' W 076°42'0 0.0
2018-Jun-17 23:00N 34°43' W 076°42'0 0.0
2018-Jun-17 22:30N 34°43' W 076°42'0 0.0
2018-Jun-17 22:00N 34°43' W 076°42'0 0.0
2018-Jun-17 21:30N 34°43' W 076°42'0 0.0
2018-Jun-17 21:00N 34°43' W 076°42'0 0.0
2018-Jun-17 20:30N 34°43' W 076°42'0 0.0
2018-Jun-17 20:00N 34°43' W 076°42'0 0.0
2018-Jun-17 19:30N 34°43' W 076°42'0 0.0
2018-Jun-17 19:00N 34°43' W 076°42'0 0.0
2018-Jun-17 18:30N 34°43' W 076°42'0 0.0
2018-Jun-17 18:00N 34°43' W 076°42'0 0.0
2018-Jun-17 17:30N 34°43' W 076°42'0 0.0
2018-Jun-17 17:00N 34°43' W 076°42'0 0.0
2018-Jun-17 16:30N 34°43' W 076°42'0 0.4
2018-Jun-17 16:00N 34°43' W 076°42'0 0.0
2018-Jun-17 15:30N 34°43' W 076°42'0 0.0
2018-Jun-17 15:00N 34°43' W 076°42'0 0.0
2018-Jun-17 14:30N 34°43' W 076°42'0 0.4
2018-Jun-17 14:00N 34°43' W 076°42'0 0.0
2018-Jun-17 13:30N 34°43' W 076°42'0 0.0
2018-Jun-17 13:00N 34°43' W 076°42'0 0.0
2018-Jun-17 12:30N 34°43' W 076°42'0 0.0
2018-Jun-17 12:00N 34°43' W 076°42'0 0.0
2018-Jun-17 11:30N 34°43' W 076°42'0 0.3
2018-Jun-17 11:00N 34°43' W 076°42'0 0.9
2018-Jun-17 10:30N 34°43' W 076°42'0 0.6
2018-Jun-17 10:00N 34°43' W 076°42'0 0.1
2018-Jun-17 09:30N 34°43' W 076°42'0 0.0
2018-Jun-17 08:59N 34°43' W 076°42'0 0.0
2018-Jun-17 08:30N 34°43' W 076°42'0 0.0
2018-Jun-17 08:00N 34°43' W 076°42'0 0.0
2018-Jun-17 07:30N 34°43' W 076°42'0 0.0
2018-Jun-17 07:00N 34°43' W 076°42'0 0.0
2018-Jun-17 06:30N 34°43' W 076°42'0 0.0
2018-Jun-17 06:00N 34°43' W 076°42'0 0.0
2018-Jun-17 05:30N 34°43' W 076°42'0 0.0
2018-Jun-17 05:00N 34°43' W 076°42'0 0.0
2018-Jun-17 04:30N 34°43' W 076°42'0 0.0
2018-Jun-17 04:00N 34°43' W 076°42'0 0.0
2018-Jun-17 03:30N 34°43' W 076°42'0 0.0
2018-Jun-17 03:00N 34°43' W 076°42'0 0.0
2018-Jun-17 02:30N 34°43' W 076°42'0 0.0
2018-Jun-17 02:00N 34°43' W 076°42'0 0.0
2018-Jun-17 01:30N 34°43' W 076°42'0 0.0
2018-Jun-17 01:00N 34°43' W 076°42'0 0.0
2018-Jun-17 00:30N 34°43' W 076°42'0 0.0
2018-Jun-17 00:00N 34°43' W 076°42'0 0.0
2018-Jun-16 23:30N 34°43' W 076°42'0 0.0
2018-Jun-16 23:00N 34°43' W 076°42'0 0.0
2018-Jun-16 22:30N 34°43' W 076°42'0 0.0
2018-Jun-16 22:00N 34°43' W 076°42'0 0.0
2018-Jun-16 21:30N 34°43' W 076°42'0 0.0
2018-Jun-16 21:00N 34°43' W 076°42'0 0.0
2018-Jun-16 20:30N 34°43' W 076°42'0 0.0
2018-Jun-16 20:00N 34°43' W 076°42'0 0.0
2018-Jun-16 19:30N 34°43' W 076°42'0 0.0
2018-Jun-16 19:00N 34°43' W 076°42'0 0.7
2018-Jun-16 18:30N 34°43' W 076°42'0 0.7
2018-Jun-16 18:00N 34°43' W 076°42'0 0.0
2018-Jun-16 17:30N 34°43' W 076°42'0 0.0
2018-Jun-16 17:00N 34°43' W 076°42'0 0.0
2018-Jun-16 16:30N 34°43' W 076°42'0 0.0
2018-Jun-16 16:00N 34°43' W 076°42'0 0.0
2018-Jun-16 15:30N 34°43' W 076°42'0 0.0
2018-Jun-16 15:00N 34°43' W 076°42'0 0.0
2018-Jun-16 14:30N 34°43' W 076°42'0 0.0
2018-Jun-16 14:00N 34°43' W 076°42'0 0.0
2018-Jun-16 13:30N 34°43' W 076°42'0 0.0
2018-Jun-16 13:00N 34°43' W 076°42'0 0.0
2018-Jun-16 12:30N 34°43' W 076°42'0 0.0
2018-Jun-16 12:00N 34°43' W 076°42'0 0.0
2018-Jun-16 11:30N 34°43' W 076°42'0 0.0
2018-Jun-16 11:00N 34°43' W 076°42'0 0.0
2018-Jun-16 10:30N 34°43' W 076°42'0 0.0
2018-Jun-16 10:00N 34°43' W 076°42'0 0.0
2018-Jun-16 09:30N 34°43' W 076°42'0 0.2
2018-Jun-16 09:00N 34°43' W 076°42'1 1.2
2018-Jun-16 08:30N 34°43' W 076°41'0 0.0
2018-Jun-16 08:00N 34°43' W 076°41'0 0.0
2018-Jun-16 07:30N 34°43' W 076°41'0 0.0
2018-Jun-16 07:00N 34°43' W 076°41'0 0.0
2018-Jun-16 06:30N 34°43' W 076°41'0 0.0
2018-Jun-16 05:59N 34°43' W 076°41'0 0.0
2018-Jun-16 05:30N 34°43' W 076°41'0 0.0
2018-Jun-16 05:00N 34°43' W 076°41'0 0.0
2018-Jun-16 04:30N 34°43' W 076°41'0 0.0
2018-Jun-16 04:00N 34°43' W 076°41'0 0.0
2018-Jun-16 03:30N 34°43' W 076°41'0 0.0
2018-Jun-16 03:00N 34°43' W 076°41'1 1.2
2018-Jun-16 02:30N 34°43' W 076°42'0 0.0
2018-Jun-16 02:00N 34°43' W 076°42'0 0.0
2018-Jun-16 01:30N 34°43' W 076°42'1 1.2
2018-Jun-16 01:00N 34°43' W 076°41'1 1.1
2018-Jun-16 00:30N 34°43' W 076°42'0 0.1
2018-Jun-16 00:00N 34°43' W 076°42'0 0.0
2018-Jun-15 23:30N 34°43' W 076°42'0 0.0
2018-Jun-15 23:00N 34°43' W 076°42'0 0.0
2018-Jun-15 22:30N 34°43' W 076°42'0 0.0
2018-Jun-15 22:00N 34°43' W 076°42'0 0.2
2018-Jun-15 21:30N 34°43' W 076°42'0 0.2
2018-Jun-15 21:00N 34°43' W 076°42'0 0.0
2018-Jun-15 20:30N 34°43' W 076°42'0 0.0
2018-Jun-15 20:00N 34°43' W 076°42'0 0.0
2018-Jun-15 19:30N 34°43' W 076°42'0 0.0
2018-Jun-15 19:00N 34°43' W 076°42'0 0.0
2018-Jun-15 18:30N 34°43' W 076°42'0 0.0
2018-Jun-15 18:00N 34°43' W 076°42'0 0.0
2018-Jun-15 17:30N 34°43' W 076°42'0 0.0
2018-Jun-15 17:00N 34°43' W 076°42'0 0.0
2018-Jun-15 16:30N 34°43' W 076°42'0 0.0
2018-Jun-15 16:00N 34°43' W 076°42'0 0.0
2018-Jun-15 15:30N 34°43' W 076°42'0 0.0
2018-Jun-15 15:00N 34°43' W 076°42'0 0.0
2018-Jun-15 14:30N 34°43' W 076°42'0 0.0
2018-Jun-15 14:00N 34°43' W 076°42'0 0.0
2018-Jun-15 13:30N 34°43' W 076°42'0 0.0
2018-Jun-15 13:00N 34°43' W 076°42'0 1.0
2018-Jun-15 12:30N 34°43' W 076°42'0 0.4
2018-Jun-15 12:00N 34°43' W 076°42'0 0.7
2018-Jun-15 11:30N 34°43' W 076°42'0 0.0
2018-Jun-15 11:00N 34°43' W 076°42'0 0.0
2018-Jun-15 10:30N 34°43' W 076°42'0 0.0
2018-Jun-15 10:00N 34°43' W 076°42'0 0.0
2018-Jun-15 09:30N 34°43' W 076°42'0 0.0
2018-Jun-15 09:00N 34°43' W 076°42'1 1.3
2018-Jun-15 08:30N 34°43' W 076°42'1 1.3
2018-Jun-15 08:00N 34°43' W 076°42'0 0.2
2018-Jun-15 07:30N 34°43' W 076°42'0 0.0
2018-Jun-15 07:00N 34°43' W 076°42'0 0.0
2018-Jun-15 06:30N 34°43' W 076°42'0 0.0
2018-Jun-15 06:00N 34°43' W 076°42'0 0.0
2018-Jun-15 05:30N 34°43' W 076°42'0 0.0
2018-Jun-15 05:00N 34°43' W 076°42'0 0.0
2018-Jun-15 04:30N 34°43' W 076°42'0 0.0
2018-Jun-15 04:00N 34°43' W 076°42'0 0.0
2018-Jun-15 03:30N 34°43' W 076°42'0 0.0
2018-Jun-15 03:00N 34°43' W 076°42'0 0.0
2018-Jun-15 02:30N 34°43' W 076°42'0 0.0
2018-Jun-15 02:00N 34°43' W 076°42'0 0.0
2018-Jun-15 01:30N 34°43' W 076°42'0 0.0
2018-Jun-15 01:00N 34°43' W 076°42'0 0.0
2018-Jun-15 00:30N 34°43' W 076°42'0 0.0
2018-Jun-15 00:00N 34°43' W 076°42'0 0.2
2018-Jun-14 23:30N 34°43' W 076°42'0 0.2
2018-Jun-14 23:00N 34°43' W 076°42'0 0.0
2018-Jun-14 22:30N 34°43' W 076°42'0 0.0
2018-Jun-14 22:00N 34°43' W 076°42'0 0.0
2018-Jun-14 21:30N 34°43' W 076°42'0 0.0
2018-Jun-14 21:00N 34°43' W 076°42'0 0.0
2018-Jun-14 20:30N 34°43' W 076°42'0 0.0
2018-Jun-14 20:00N 34°43' W 076°42'0 0.0
2018-Jun-14 19:30N 34°43' W 076°42'0 0.0
2018-Jun-14 19:00N 34°43' W 076°42'0 0.0
2018-Jun-14 18:30N 34°43' W 076°42'0 0.0
2018-Jun-14 18:00N 34°43' W 076°42'0 0.0
2018-Jun-14 17:30N 34°43' W 076°42'0 0.1
2018-Jun-14 17:00N 34°43' W 076°42'0 0.4
2018-Jun-14 16:30N 34°43' W 076°42'0 0.1
2018-Jun-14 16:00N 34°43' W 076°42'0 0.8
2018-Jun-14 15:30N 34°43' W 076°42'0 0.3
2018-Jun-14 15:00N 34°43' W 076°42'0 0.5
2018-Jun-14 14:30N 34°43' W 076°41'0 0.8
2018-Jun-14 14:00N 34°43' W 076°42'0 0.3
2018-Jun-14 13:30N 34°43' W 076°42'0 0.0
2018-Jun-14 13:00N 34°43' W 076°42'0 0.0
2018-Jun-14 12:30N 34°43' W 076°42'0 0.1
2018-Jun-14 12:00N 34°43' W 076°42'0 0.0
2018-Jun-14 11:30N 34°43' W 076°42'0 0.0
2018-Jun-14 10:59N 34°43' W 076°42'0 0.1
2018-Jun-14 10:30N 34°43' W 076°42'0 0.0
2018-Jun-14 10:00N 34°43' W 076°42'0 0.0
2018-Jun-14 09:30N 34°43' W 076°42'0 0.0
2018-Jun-14 09:00N 34°43' W 076°42'0 0.7
2018-Jun-14 08:30N 34°43' W 076°42'0 0.1
2018-Jun-14 08:00N 34°43' W 076°42'1 1.1
2018-Jun-14 07:30N 34°43' W 076°42'0 0.9
2018-Jun-14 07:00N 34°43' W 076°42'0 0.0
2018-Jun-14 06:30N 34°43' W 076°42'0 0.0
2018-Jun-14 06:00N 34°43' W 076°42'0 0.0
2018-Jun-14 05:30N 34°43' W 076°42'0 0.0
2018-Jun-14 05:00N 34°43' W 076°42'0 0.0
2018-Jun-14 04:30N 34°43' W 076°42'0 0.0
2018-Jun-14 04:00N 34°43' W 076°42'0 0.0
2018-Jun-14 03:30N 34°43' W 076°42'0 0.0
2018-Jun-14 03:00N 34°43' W 076°42'0 0.0
2018-Jun-14 02:30N 34°43' W 076°42'0 0.0
2018-Jun-14 02:00N 34°43' W 076°42'0 0.0
2018-Jun-14 01:30N 34°43' W 076°42'1 1.1
2018-Jun-14 01:00N 34°43' W 076°42'1 1.1
2018-Jun-14 00:30N 34°43' W 076°42'0 0.0
2018-Jun-14 00:00N 34°43' W 076°42'0 0.0
2018-Jun-13 23:30N 34°43' W 076°42'0 0.0
2018-Jun-13 23:00N 34°43' W 076°42'0 0.0
2018-Jun-13 22:30N 34°43' W 076°42'0 0.0
2018-Jun-13 22:00N 34°43' W 076°42'0 0.1
2018-Jun-13 21:30N 34°43' W 076°42'0 0.7
2018-Jun-13 21:00N 34°43' W 076°42'0 0.0
2018-Jun-13 20:30N 34°43' W 076°42'0 0.0
2018-Jun-13 20:00N 34°43' W 076°42'0 0.6
2018-Jun-13 19:30N 34°43' W 076°42'0 0.0
2018-Jun-13 19:00N 34°43' W 076°42'0 0.0
2018-Jun-13 18:30N 34°43' W 076°42'0 0.0
2018-Jun-13 18:00N 34°43' W 076°42'0 0.0
2018-Jun-13 17:30N 34°43' W 076°42'0 0.0
2018-Jun-13 17:00N 34°43' W 076°42'0 0.0
2018-Jun-13 16:30N 34°43' W 076°42'0 0.0
2018-Jun-13 16:00N 34°43' W 076°42'0 0.0
2018-Jun-13 15:30N 34°43' W 076°42'0 0.7
2018-Jun-13 15:00N 34°43' W 076°42'0 0.7
2018-Jun-13 14:29N 34°43' W 076°42'0 0.0
2018-Jun-13 14:00N 34°43' W 076°42'0 0.0
2018-Jun-13 13:30N 34°43' W 076°42'0 0.0
2018-Jun-13 13:00N 34°43' W 076°42'0 0.0
2018-Jun-13 12:30N 34°43' W 076°42'0 0.0
2018-Jun-13 12:00N 34°43' W 076°42'0 0.0
2018-Jun-13 11:30N 34°43' W 076°42'0 0.0
2018-Jun-13 11:00N 34°43' W 076°42'0 0.0
2018-Jun-13 10:30N 34°43' W 076°42'0 0.0
2018-Jun-13 09:59N 34°43' W 076°42'0 0.0
2018-Jun-13 09:30N 34°43' W 076°42'0 0.0
2018-Jun-13 09:00N 34°43' W 076°42'0 0.0
2018-Jun-13 08:30N 34°43' W 076°42'0 0.0
2018-Jun-13 08:01N 34°43' W 076°42'0 0.0
2018-Jun-13 07:30N 34°43' W 076°42'0 0.0
2018-Jun-13 07:01N 34°43' W 076°42'0 0.0
2018-Jun-13 06:31N 34°43' W 076°42'0 0.0
2018-Jun-13 06:00N 34°43' W 076°42'0 0.0
2018-Jun-13 05:31N 34°43' W 076°42'0 0.0
2018-Jun-13 05:01N 34°43' W 076°42'0 0.0
2018-Jun-13 04:31N 34°43' W 076°42'0 0.0
2018-Jun-13 04:00N 34°43' W 076°42'0 0.0
2018-Jun-13 03:30N 34°43' W 076°42'0 0.0
2018-Jun-13 03:01N 34°43' W 076°42'0 0.0
2018-Jun-13 02:31N 34°43' W 076°42'0 0.0
2018-Jun-13 02:01N 34°43' W 076°42'1 1.1
2018-Jun-13 01:31N 34°43' W 076°41'0 0.1
2018-Jun-13 01:01N 34°43' W 076°41'0 0.0
2018-Jun-13 00:31N 34°43' W 076°41'0 0.4
2018-Jun-13 00:01N 34°43' W 076°42'0 0.0
2018-Jun-12 23:30N 34°43' W 076°42'0 0.0
2018-Jun-12 23:01N 34°43' W 076°42'0 0.0
2018-Jun-12 22:31N 34°43' W 076°42'0 0.0
2018-Jun-12 22:01N 34°43' W 076°42'0 0.0
2018-Jun-12 21:29N 34°43' W 076°42'0 0.0
2018-Jun-12 21:00N 34°43' W 076°42'0 0.1
2018-Jun-12 20:31N 34°43' W 076°42'0 0.8
2018-Jun-12 20:01N 34°43' W 076°42'0 0.7
2018-Jun-12 19:27N 34°43' W 076°42'0 0.0
2018-Jun-12 19:01N 34°43' W 076°42'0 0.1
2018-Jun-12 18:31N 34°43' W 076°42'0 0.0
2018-Jun-12 18:01N 34°43' W 076°42'0 0.0
2018-Jun-12 17:31N 34°43' W 076°42'0 0.0
2018-Jun-12 17:01N 34°43' W 076°42'0 0.0
2018-Jun-12 16:31N 34°43' W 076°42'0 0.8
2018-Jun-12 16:00N 34°43' W 076°42'0 0.0
2018-Jun-12 15:30N 34°43' W 076°42'0 0.0
2018-Jun-12 15:01N 34°43' W 076°42'0 0.0
2018-Jun-12 14:29N 34°43' W 076°42'0 0.0
2018-Jun-12 14:00N 34°43' W 076°42'0 0.9
2018-Jun-12 13:29N 34°43' W 076°42'0 1.0
2018-Jun-12 13:00N 34°43' W 076°42'0 0.0
2018-Jun-12 12:31N 34°43' W 076°42'0 0.0
2018-Jun-12 12:01N 34°43' W 076°42'0 0.0
2018-Jun-12 11:29N 34°43' W 076°42'0 0.0
2018-Jun-12 11:01N 34°43' W 076°42'0 0.0
2018-Jun-12 10:30N 34°43' W 076°42'0 0.0
2018-Jun-12 10:01N 34°43' W 076°42'0 0.0
2018-Jun-12 09:31N 34°43' W 076°42'0 0.0
2018-Jun-12 09:01N 34°43' W 076°42'0 0.0
2018-Jun-12 08:31N 34°43' W 076°42'0 0.0
2018-Jun-12 08:01N 34°43' W 076°42'0 0.0
2018-Jun-12 07:30N 34°43' W 076°42'0 0.0
2018-Jun-12 07:00N 34°43' W 076°42'0 0.0
2018-Jun-12 06:31N 34°43' W 076°42'0 0.0
2018-Jun-12 06:01N 34°43' W 076°42'0 0.0
2018-Jun-12 05:30N 34°43' W 076°42'0 0.0
2018-Jun-12 05:00N 34°43' W 076°42'0 0.0
2018-Jun-12 04:29N 34°43' W 076°42'0 0.0
2018-Jun-12 04:01N 34°43' W 076°42'0 0.0
2018-Jun-12 03:30N 34°43' W 076°42'0 0.0
2018-Jun-12 03:01N 34°43' W 076°42'0 0.0
2018-Jun-12 02:31N 34°43' W 076°42'0 0.0
2018-Jun-12 02:01N 34°43' W 076°42'0 0.0
2018-Jun-12 01:31N 34°43' W 076°42'0 0.0
2018-Jun-12 01:00N 34°43' W 076°42'0 0.0
2018-Jun-12 00:31N 34°43' W 076°42'0 0.0
2018-Jun-12 00:01N 34°43' W 076°42'0 0.0
2018-Jun-11 23:31N 34°43' W 076°42'0 0.9
2018-Jun-11 23:01N 34°43' W 076°42'0 0.4
2018-Jun-11 22:31N 34°43' W 076°41'1 1.2
2018-Jun-11 22:01N 34°43' W 076°42'1 0.3
2018-Jun-11 19:56N 34°43' W 076°41'1 1.3
2018-Jun-11 19:31N 34°43' W 076°42'1 1.5
2018-Jun-11 19:01N 34°44' W 076°42'2 4.3
2018-Jun-11 18:31N 34°45' W 076°40'1 2.7
2018-Jun-11 18:00N 34°47' W 076°41'0 0.3
2018-Jun-11 17:31N 34°46' W 076°41'1 2.9
2018-Jun-11 17:00N 34°45' W 076°41'2 3.9
2018-Jun-11 16:31N 34°43' W 076°42'0 0.8
2018-Jun-11 16:01N 34°43' W 076°42'0 0.0
2018-Jun-11 15:30N 34°43' W 076°42'0 0.0
2018-Jun-11 15:00N 34°43' W 076°42'0 0.0
2018-Jun-11 14:31N 34°43' W 076°42'0 0.0
2018-Jun-11 14:00N 34°43' W 076°42'0 0.0
2018-Jun-11 13:31N 34°43' W 076°42'0 0.0
2018-Jun-11 13:01N 34°43' W 076°42'0 0.0
2018-Jun-11 12:31N 34°43' W 076°42'0 0.0
2018-Jun-11 12:01N 34°43' W 076°42'0 0.0
2018-Jun-11 11:30N 34°43' W 076°42'0 0.0
2018-Jun-11 11:00N 34°43' W 076°42'0 0.3
2018-Jun-11 10:30N 34°43' W 076°42'0 0.8
2018-Jun-11 10:01N 34°43' W 076°42'0 0.0
2018-Jun-11 09:31N 34°43' W 076°42'0 0.2
2018-Jun-11 09:01N 34°43' W 076°42'0 0.3
2018-Jun-11 08:30N 34°43' W 076°42'0 0.0
2018-Jun-11 08:01N 34°43' W 076°42'0 0.0
2018-Jun-11 07:31N 34°43' W 076°42'0 0.0
2018-Jun-11 07:01N 34°43' W 076°42'0 0.0
2018-Jun-11 06:30N 34°43' W 076°42'0 0.0
2018-Jun-11 06:01N 34°43' W 076°42'0 0.0
2018-Jun-11 05:31N 34°43' W 076°42'0 0.0
2018-Jun-11 05:00N 34°43' W 076°42'0 0.0
2018-Jun-11 04:29N 34°43' W 076°42'0 0.0
2018-Jun-11 04:01N 34°43' W 076°42'0 0.2
2018-Jun-11 03:30N 34°43' W 076°42'0 0.4
2018-Jun-11 03:00N 34°43' W 076°42'3 7.0
2018-Jun-11 02:31N 34°43' W 076°46'3 5.8
2018-Jun-11 01:59N 34°43' W 076°50'3 5.5
2018-Jun-11 01:31N 34°43' W 076°53'3 5.0
2018-Jun-11 01:00N 34°43' W 076°56'5 5.2
2018-Jun-11 00:05N 34°41' W 077°01'  

Dump ship's entire track history